Time;durP1;ratioP1;P1;durP2;ratioP2;P2;SDS_P1;SDS_P2;PMS_P1;PMS_P2;Temp;Humidity;BMP_temperature;BMP_pressure;BME280_temperature;BME280_humidity;BME280_pressure;Samples;Min_cycle;Max_cycle;Signal;HPM_P1;HPM_P2
2022/08/03 00:02:54;;;;;;;10.55;4.68;;;28.30;60.40;;;;;;5054476;28;20306;-69
2022/08/03 00:05:58;;;;;;;16.63;5.65;;;28.30;60.30;;;;;;5054279;28;20112;-69
2022/08/03 00:09:02;;;;;;;10.23;5.07;;;28.20;61.20;;;;;;5054156;28;20063;-69
2022/08/03 00:12:07;;;;;;;8.35;4.78;;;28.20;61.20;;;;;;5054248;28;20048;-71
2022/08/03 00:15:11;;;;;;;11.27;4.72;;;28.10;60.70;;;;;;5053968;28;20400;-71
2022/08/03 00:18:15;;;;;;;11.48;4.93;;;28.10;60.30;;;;;;5054108;28;20040;-71
2022/08/03 00:21:19;;;;;;;14.80;5.15;;;27.80;61.10;;;;;;5054335;28;20539;-71
2022/08/03 00:24:23;;;;;;;12.25;4.90;;;27.80;61.30;;;;;;5054008;28;20047;-69
2022/08/03 00:27:27;;;;;;;9.35;5.05;;;27.60;61.20;;;;;;5053944;28;20047;-71
2022/08/03 00:30:32;;;;;;;8.55;4.32;;;27.60;61.40;;;;;;5052832;28;20044;-71
2022/08/03 00:33:36;;;;;;;18.08;5.03;;;27.70;61.00;;;;;;5053665;28;20056;-71
2022/08/03 00:36:40;;;;;;;10.88;3.92;;;27.60;62.60;;;;;;5053818;28;20044;-69
2022/08/03 00:39:46;;;;;;;12.57;4.30;;;27.60;60.30;;;;;;5053286;28;20048;-71
2022/08/03 00:42:55;;;;;;;10.43;4.18;;;27.70;60.50;;;;;;5053684;28;20052;-71
2022/08/03 00:45:59;;;;;;;16.42;4.70;;;27.70;59.80;;;;;;5053527;28;20068;-71
2022/08/03 00:49:03;;;;;;;12.45;4.10;;;27.50;60.20;;;;;;5053770;28;20040;-71
2022/08/03 00:52:12;;;;;;;9.52;3.88;;;27.20;60.50;;;;;;5053478;28;20052;-71
2022/08/03 00:55:17;;;;;;;10.35;4.00;;;27.00;59.90;;;;;;5053334;28;20052;-71
2022/08/03 00:58:22;;;;;;;16.63;4.63;;;26.80;60.70;;;;;;5053138;28;20040;-71
2022/08/03 01:01:27;;;;;;;17.63;4.75;;;26.80;61.00;;;;;;5053587;28;20039;-71
2022/08/03 01:04:30;;;;;;;11.60;4.55;;;26.60;61.60;;;;;;5053154;28;20051;-71
2022/08/03 01:07:50;;;;;;;9.60;4.40;;;26.60;62.00;;;;;;5053122;28;20183;-71
2022/08/03 01:11:06;;;;;;;10.95;4.38;;;26.60;61.80;;;;;;5053309;28;20048;-71
2022/08/03 01:14:33;;;;;;;9.93;4.68;;;26.70;61.50;;;;;;5052784;28;20060;-71
2022/08/03 01:17:53;;;;;;;10.98;5.18;;;26.90;61.40;;;;;;5052819;28;20036;-71
2022/08/03 01:21:02;;;;;;;8.52;4.13;;;26.90;61.10;;;;;;5052862;28;20036;-71
2022/08/03 01:24:15;;;;;;;8.48;4.55;;;27.00;60.50;;;;;;5051821;28;20495;-71
2022/08/03 01:27:30;;;;;;;11.50;4.05;;;27.00;60.70;;;;;;5051987;28;20048;-71
2022/08/03 01:30:36;;;;;;;16.38;4.35;;;26.90;60.80;;;;;;5051844;28;20044;-71
2022/08/03 01:33:44;;;;;;;11.05;3.92;;;27.00;60.70;;;;;;5052651;28;20056;-71
2022/08/03 01:36:55;;;;;;;6.57;4.47;;;26.80;61.00;;;;;;5052535;28;20041;-71
2022/08/03 01:40:02;;;;;;;7.77;4.00;;;26.70;61.10;;;;;;5052367;28;20428;-71
2022/08/03 01:43:10;;;;;;;10.27;4.10;;;26.70;60.60;;;;;;5052333;28;20036;-71
2022/08/03 01:46:16;;;;;;;10.73;4.07;;;26.60;60.90;;;;;;5051576;28;20044;-72
2022/08/03 01:49:21;;;;;;;8.85;4.00;;;26.50;61.10;;;;;;5051408;28;20040;-72
2022/08/03 01:52:26;;;;;;;18.70;3.85;;;26.60;60.80;;;;;;5052381;28;20499;-71
2022/08/03 01:55:32;;;;;;;9.85;3.28;;;26.70;60.60;;;;;;5051980;28;20059;-71
2022/08/03 01:58:38;;;;;;;6.53;3.65;;;26.80;60.30;;;;;;5052672;28;20044;-71
2022/08/03 02:01:43;;;;;;;10.25;4.22;;;26.90;60.60;;;;;;5052038;28;20206;-71
2022/08/03 02:04:49;;;;;;;8.05;3.78;;;26.80;60.50;;;;;;5051876;28;20036;-71
2022/08/03 02:07:54;;;;;;;6.30;3.72;;;26.90;60.00;;;;;;5051633;28;20044;-72
2022/08/03 02:11:00;;;;;;;7.97;3.75;;;26.90;59.60;;;;;;5052006;28;20044;-71
2022/08/03 02:14:06;;;;;;;4.63;3.42;;;27.00;59.20;;;;;;5051692;28;20500;-71
2022/08/03 02:17:13;;;;;;;5.40;3.40;;;27.00;59.20;;;;;;5051999;28;20064;-71
2022/08/03 02:20:18;;;;;;;9.73;3.88;;;27.00;59.50;;;;;;5051722;28;20044;-72
2022/08/03 02:23:22;;;;;;;7.30;3.80;;;26.90;59.40;;;;;;5051461;28;20099;-71
2022/08/03 02:26:29;;;;;;;5.80;3.35;;;26.80;59.50;;;;;;5051601;28;20048;-71
2022/08/03 02:29:36;;;;;;;7.80;3.40;;;26.60;59.90;;;;;;5051675;28;20396;-71
2022/08/03 02:32:46;;;;;;;8.35;3.42;;;26.50;60.00;;;;;;5051564;28;20503;-71
2022/08/03 02:35:51;;;;;;;14.95;3.38;;;26.50;60.20;;;;;;5051489;28;20067;-72
2022/08/03 02:38:58;;;;;;;10.43;3.15;;;26.50;59.80;;;;;;5051377;28;20389;-72
2022/08/03 02:42:04;;;;;;;6.30;2.97;;;26.50;59.50;;;;;;5011755;28;20053;-71
2022/08/03 02:45:13;;;;;;;5.28;2.97;;;26.60;59.70;;;;;;5010568;28;20045;-71
2022/08/03 02:48:24;;;;;;;6.55;3.00;;;26.70;58.60;;;;;;5011610;28;20040;-71
2022/08/03 02:51:31;;;;;;;7.57;2.90;;;26.80;59.00;;;;;;5011738;28;20037;-71
2022/08/03 02:54:37;;;;;;;8.15;3.10;;;26.80;58.70;;;;;;5011291;28;20053;-71
2022/08/03 02:57:43;;;;;;;4.00;2.72;;;26.80;58.60;;;;;;5011662;28;20053;-71
2022/08/03 03:00:50;;;;;;;4.45;2.80;;;26.80;58.40;;;;;;5010628;28;20061;-71
2022/08/03 03:03:56;;;;;;;3.83;2.80;;;26.80;58.20;;;;;;5011524;28;20041;-71
2022/08/03 03:07:00;;;;;;;4.28;2.60;;;26.80;58.80;;;;;;5011659;28;20041;-71
2022/08/03 03:10:05;;;;;;;7.35;2.45;;;26.80;58.10;;;;;;5011726;28;20049;-71
2022/08/03 03:13:10;;;;;;;8.77;2.67;;;26.90;58.10;;;;;;5011592;28;20061;-72
2022/08/03 03:16:15;;;;;;;5.72;2.70;;;26.90;57.80;;;;;;5011249;28;20045;-72
2022/08/03 03:19:21;;;;;;;13.65;3.55;;;26.90;59.40;;;;;;5011192;28;20393;-72
2022/08/03 03:22:27;;;;;;;7.75;2.80;;;26.90;58.70;;;;;;5012166;28;20045;-72
2022/08/03 03:25:32;;;;;;;5.75;3.17;;;26.90;58.40;;;;;;5015448;28;20057;-71
2022/08/03 03:28:36;;;;;;;9.88;3.08;;;26.60;58.70;;;;;;5003336;28;20494;-71
2022/08/03 03:31:41;;;;;;;4.43;2.60;;;26.50;58.60;;;;;;5015224;28;20056;-72
2022/08/03 03:34:46;;;;;;;10.65;2.90;;;26.50;58.50;;;;;;5015009;28;20057;-71
2022/08/03 03:37:51;;;;;;;7.75;3.03;;;26.50;58.70;;;;;;5014994;28;20041;-72
2022/08/03 03:40:58;;;;;;;9.68;2.55;;;26.50;59.20;;;;;;5038460;28;20048;-71
2022/08/03 03:44:02;;;;;;;5.68;2.88;;;26.60;58.50;;;;;;5054670;28;20051;-71
2022/08/03 03:47:06;;;;;;;5.43;2.60;;;26.60;58.90;;;;;;5054607;28;20056;-72
2022/08/03 03:50:11;;;;;;;10.30;2.40;;;26.60;58.70;;;;;;5054796;28;20204;-70
2022/08/03 03:53:15;;;;;;;10.35;2.80;;;26.60;58.70;;;;;;5053647;28;20059;-70
2022/08/03 03:56:19;;;;;;;3.45;2.67;;;26.60;58.80;;;;;;5054740;28;20068;-71
2022/08/03 03:59:23;;;;;;;8.10;2.67;;;26.60;58.60;;;;;;5055177;28;20052;-70
2022/08/03 04:02:27;;;;;;;13.27;3.17;;;26.60;58.60;;;;;;5054717;28;20043;-70
2022/08/03 04:12:17;;;;;;;10.02;2.95;;;26.70;58.10;;;;;;5054221;28;20048;-71
2022/08/03 04:15:22;;;;;;;4.53;2.53;;;26.80;58.30;;;;;;5054372;28;20523;-72
2022/08/03 04:18:31;;;;;;;19.15;3.30;;;26.70;58.90;;;;;;5053419;28;20044;-72
2022/08/03 04:21:39;;;;;;;10.20;3.40;;;26.70;59.60;;;;;;5054373;28;20048;-72
2022/08/03 04:25:01;;;;;;;13.45;3.55;;;26.70;59.60;;;;;;5053076;28;20048;-72
2022/08/03 04:28:06;;;;;;;13.73;3.88;;;26.70;59.90;;;;;;5053292;28;20036;-70
2022/08/03 04:31:13;;;;;;;11.77;4.30;;;26.80;60.30;;;;;;5053948;28;20124;-72
2022/08/03 04:34:20;;;;;;;32.55;4.20;;;26.90;60.40;;;;;;5053099;28;20067;-71
2022/08/03 04:37:33;;;;;;;21.75;4.35;;;26.90;61.30;;;;;;5054150;28;20044;-72
2022/08/03 04:40:41;;;;;;;20.80;4.30;;;26.80;61.50;;;;;;5053883;28;20064;-73
2022/08/03 04:43:48;;;;;;;14.65;3.75;;;26.90;62.10;;;;;;5053522;28;20427;-71
2022/08/03 04:46:53;;;;;;;19.05;4.25;;;27.10;61.90;;;;;;5053991;28;20056;-71
2022/08/03 04:49:59;;;;;;;14.68;3.53;;;27.50;61.60;;;;;;5041687;28;20040;-72
2022/08/03 04:53:05;;;;;;;23.70;4.53;;;28.10;60.40;;;;;;5053760;28;20052;-70
2022/08/03 04:56:09;;;;;;;18.05;3.45;;;29.10;59.00;;;;;;5053491;28;20044;-71
2022/08/03 04:59:13;;;;;;;19.63;4.00;;;30.10;56.50;;;;;;5053134;28;20419;-71
2022/08/03 05:02:17;;;;;;;20.85;4.47;;;30.80;55.20;;;;;;5053550;28;20397;-71
2022/08/03 05:05:22;;;;;;;30.85;4.10;;;31.30;54.50;;;;;;5053422;28;20060;-72
2022/08/03 05:08:26;;;;;;;32.45;5.18;;;31.90;54.70;;;;;;5053371;28;20048;-71
2022/08/03 05:11:30;;;;;;;23.50;4.97;;;32.30;53.50;;;;;;5053499;28;20036;-71
2022/08/03 05:14:37;;;;;;;33.72;5.40;;;32.70;53.00;;;;;;5053170;28;20044;-72
2022/08/03 05:17:41;;;;;;;19.67;4.10;;;33.00;52.60;;;;;;5053202;28;20523;-72
2022/08/03 05:20:44;;;;;;;11.75;4.10;;;33.10;52.40;;;;;;5052363;28;20389;-72
2022/08/03 05:23:48;;;;;;;17.25;3.88;;;33.10;52.40;;;;;;5051922;28;20048;-71
2022/08/03 05:26:55;;;;;;;20.60;4.60;;;33.00;52.50;;;;;;5053045;28;20044;-71
2022/08/03 05:30:00;;;;;;;22.30;5.05;;;32.50;53.70;;;;;;5053221;28;20048;-72
2022/08/03 05:33:04;;;;;;;24.58;5.07;;;32.20;54.10;;;;;;5053168;28;20048;-73
2022/08/03 05:36:08;;;;;;;19.50;5.57;;;31.80;55.00;;;;;;5052639;28;20075;-71
2022/08/03 05:39:12;;;;;;;24.63;5.28;;;31.80;55.50;;;;;;5053215;28;20051;-71
2022/08/03 05:42:16;;;;;;;30.40;5.30;;;31.70;56.20;;;;;;5053199;28;20396;-70
2022/08/03 05:45:20;;;;;;;25.17;4.50;;;31.70;56.30;;;;;;5052268;28;20591;-71
2022/08/03 05:48:24;;;;;;;27.65;5.22;;;31.50;54.90;;;;;;5052675;28;20499;-72
2022/08/03 05:51:28;;;;;;;26.00;5.40;;;31.50;55.40;;;;;;5050444;28;20048;-66
2022/08/03 05:54:32;;;;;;;18.10;4.57;;;31.60;55.00;;;;;;5051699;28;20056;-67
2022/08/03 05:57:37;;;;;;;20.30;4.38;;;31.70;55.00;;;;;;5052499;28;20385;-66
2022/08/03 06:00:41;;;;;;;18.65;4.97;;;32.00;55.40;;;;;;5052618;28;20047;-65
2022/08/03 06:03:45;;;;;;;23.85;5.35;;;32.20;55.00;;;;;;5051781;28;20052;-65
2022/08/03 06:06:49;;;;;;;27.25;6.13;;;32.40;55.20;;;;;;5051854;28;20044;-66
2022/08/03 06:09:53;;;;;;;21.80;5.57;;;32.20;55.50;;;;;;5051783;28;20052;-66
2022/08/03 06:12:57;;;;;;;23.45;4.93;;;32.40;54.80;;;;;;5051928;28;20047;-67
2022/08/03 06:16:02;;;;;;;14.40;4.80;;;32.50;53.90;;;;;;5051645;28;20059;-66
2022/08/03 06:19:07;;;;;;;14.45;5.15;;;32.60;53.60;;;;;;5052041;28;20052;-68
2022/08/03 06:22:11;;;;;;;16.15;6.38;;;32.80;51.10;;;;;;5051772;28;20436;-65
2022/08/03 06:25:18;;;;;;;13.95;5.57;;;32.70;52.00;;;;;;5050654;28;20043;-68
2022/08/03 06:28:22;;;;;;;24.48;6.45;;;32.80;51.30;;;;;;5051746;28;20060;-68
2022/08/03 06:31:28;;;;;;;23.67;7.00;;;32.90;51.70;;;;;;5051412;28;20044;-67
2022/08/03 06:34:32;;;;;;;20.73;6.47;;;33.10;52.10;;;;;;5051287;28;20052;-68
2022/08/03 06:37:44;;;;;;;26.88;6.78;;;33.20;50.40;;;;;;5050631;28;20047;-67
2022/08/03 06:40:48;;;;;;;38.42;7.43;;;33.60;50.90;;;;;;5051325;28;20052;-66
2022/08/03 06:43:53;;;;;;;17.02;6.32;;;33.80;50.20;;;;;;5051135;28;20040;-67
2022/08/03 06:47:00;;;;;;;18.02;6.63;;;33.80;50.40;;;;;;5051057;28;20044;-66
2022/08/03 06:50:05;;;;;;;18.60;6.47;;;33.60;50.30;;;;;;5051080;28;20048;-71
2022/08/03 06:53:09;;;;;;;21.52;6.60;;;33.60;50.20;;;;;;5050876;28;20044;-69
2022/08/03 06:56:13;;;;;;;20.65;6.55;;;33.60;50.90;;;;;;5050522;28;20127;-69
2022/08/03 06:59:17;;;;;;;19.88;7.03;;;33.90;50.80;;;;;;5050990;28;20040;-69
2022/08/03 07:02:21;;;;;;;21.52;7.45;;;33.80;49.70;;;;;;5051165;28;20048;-69
2022/08/03 07:05:25;;;;;;;19.65;6.10;;;33.70;49.90;;;;;;5050561;28;20123;-70
2022/08/03 07:08:29;;;;;;;16.42;6.65;;;34.10;49.60;;;;;;5050235;28;20048;-69
2022/08/03 07:11:33;;;;;;;41.95;8.38;;;34.50;49.50;;;;;;5051205;28;20389;-68
2022/08/03 07:14:37;;;;;;;20.13;5.20;;;34.90;49.60;;;;;;5050816;28;20068;-70
2022/08/03 07:17:41;;;;;;;14.60;5.78;;;35.10;48.70;;;;;;5051028;28;20044;-69
2022/08/03 07:20:45;;;;;;;14.82;5.63;;;35.00;48.10;;;;;;5051154;28;20047;-69
2022/08/03 07:23:49;;;;;;;13.63;4.88;;;35.10;48.00;;;;;;5050232;28;20043;-67
2022/08/03 07:26:52;;;;;;;14.27;5.22;;;34.90;47.50;;;;;;5050370;28;20048;-66
2022/08/03 07:29:58;;;;;;;12.55;4.03;;;34.70;48.00;;;;;;5050898;28;20091;-67
2022/08/03 07:33:02;;;;;;;11.85;3.63;;;34.30;47.60;;;;;;5050603;28;20040;-68
2022/08/03 07:36:06;;;;;;;14.15;3.70;;;34.30;48.50;;;;;;5050721;28;20060;-67
2022/08/03 07:39:10;;;;;;;12.85;4.53;;;34.50;47.10;;;;;;5050201;28;20048;-68
2022/08/03 07:42:15;;;;;;;34.95;4.50;;;34.60;47.80;;;;;;5051143;28;20052;-66
2022/08/03 07:45:22;;;;;;;15.60;4.93;;;34.90;48.00;;;;;;5050920;28;20044;-72
2022/08/03 07:48:25;;;;;;;21.15;4.90;;;35.00;47.10;;;;;;5050844;28;20060;-68
2022/08/03 07:51:30;;;;;;;11.15;4.65;;;35.30;47.20;;;;;;5050380;28;20040;-72
2022/08/03 07:54:34;;;;;;;14.82;3.78;;;36.00;47.00;;;;;;5050554;28;20040;-71
2022/08/03 07:57:38;;;;;;;12.05;3.10;;;36.50;46.40;;;;;;5050363;28;20056;-69
2022/08/03 08:00:43;;;;;;;19.80;3.85;;;36.90;47.10;;;;;;5051047;28;20511;-71
2022/08/03 08:03:49;;;;;;;13.70;3.88;;;37.20;47.20;;;;;;5049823;28;20040;-70
2022/08/03 08:06:53;;;;;;;16.13;4.43;;;37.30;44.70;;;;;;5050732;28;20546;-69
2022/08/03 08:09:57;;;;;;;16.95;4.57;;;37.30;44.70;;;;;;5054033;28;20043;-69
2022/08/03 08:13:01;;;;;;;13.82;4.40;;;37.10;44.90;;;;;;5054786;28;20040;-69
2022/08/03 08:16:06;;;;;;;13.55;4.05;;;36.90;44.60;;;;;;5054147;28;20056;-69
2022/08/03 08:19:10;;;;;;;16.02;4.40;;;37.10;45.40;;;;;;5053972;28;20044;-70
2022/08/03 08:22:14;;;;;;;7.82;3.67;;;37.30;44.90;;;;;;5053976;28;20048;-69
2022/08/03 08:25:18;;;;;;;10.90;3.83;;;37.50;44.80;;;;;;5054188;28;20051;-71
2022/08/03 08:28:25;;;;;;;11.90;4.00;;;37.50;44.20;;;;;;5053672;28;20060;-68
2022/08/03 08:31:30;;;;;;;16.42;3.60;;;37.50;44.70;;;;;;5053800;28;20051;-70
2022/08/03 08:34:34;;;;;;;10.82;3.30;;;37.40;44.70;;;;;;5053048;28;20056;-69
2022/08/03 08:37:39;;;;;;;10.23;3.28;;;37.40;44.70;;;;;;5053973;28;20112;-71
2022/08/03 08:40:43;;;;;;;13.52;4.00;;;37.10;44.40;;;;;;5040975;28;20060;-71
2022/08/03 08:43:48;;;;;;;12.93;3.20;;;37.00;44.40;;;;;;5053873;28;20044;-71
2022/08/03 08:46:53;;;;;;;8.90;3.05;;;37.10;44.40;;;;;;5053913;28;20040;-71
2022/08/03 08:49:59;;;;;;;11.90;3.53;;;36.90;44.20;;;;;;5053663;28;20063;-69
2022/08/03 08:53:05;;;;;;;19.10;4.65;;;37.10;44.70;;;;;;5053754;28;20057;-71
2022/08/03 08:56:16;;;;;;;7.30;3.03;;;37.20;44.30;;;;;;5053368;28;20072;-71
2022/08/03 08:59:20;;;;;;;;;;;37.40;44.30;;;;;;5053977;28;20071;-70
2022/08/03 09:02:28;;;;;;;8.25;2.67;;;37.60;45.00;;;;;;5053500;28;19916;-70
2022/08/03 09:05:32;;;;;;;8.05;2.80;;;37.60;44.70;;;;;;5053498;28;20039;-71
2022/08/03 09:08:36;;;;;;;9.50;2.72;;;37.70;43.70;;;;;;5052671;28;20048;-70
2022/08/03 09:11:44;;;;;;;7.03;2.60;;;37.60;43.30;;;;;;5053090;28;20415;-69
2022/08/03 09:14:48;;;;;;;9.23;3.20;;;37.60;43.70;;;;;;5053032;28;20048;-71
2022/08/03 09:17:55;;;;;;;8.45;3.35;;;37.50;43.40;;;;;;5053284;28;20056;-69
2022/08/03 09:21:20;;;;;;;10.98;3.05;;;37.50;43.80;;;;;;5052192;28;20040;-68
2022/08/03 09:24:24;;;;;;;7.88;3.50;;;37.60;43.40;;;;;;5052675;28;20051;-68
2022/08/03 09:27:40;;;;;;;11.90;3.75;;;37.40;43.30;;;;;;5053047;28;20036;-70
2022/08/03 09:30:58;;;;;;;14.02;3.65;;;37.40;43.70;;;;;;5052368;28;20052;-71
2022/08/03 09:34:15;;;;;;;11.45;4.18;;;38.40;43.30;;;;;;5053018;28;20044;-71
2022/08/03 09:37:21;;;;;;;18.08;3.60;;;39.40;42.70;;;;;;5053517;28;20056;-73
2022/08/03 09:40:34;;;;;;;9.00;3.30;;;40.10;42.10;;;;;;5052880;28;20060;-72
2022/08/03 09:43:45;;;;;;;8.90;3.80;;;40.60;41.90;;;;;;5054037;28;20119;-73
2022/08/03 09:46:55;;;;;;;7.88;2.92;;;40.70;42.30;;;;;;5053624;28;20511;-74
2022/08/03 09:50:01;;;;;;;6.27;2.77;;;40.80;40.00;;;;;;5054298;28;20504;-76
2022/08/03 09:53:05;;;;;;;7.03;3.00;;;40.90;40.10;;;;;;5052883;28;20052;-75
2022/08/03 09:56:10;;;;;;;5.45;2.67;;;40.80;40.20;;;;;;5052494;28;20063;-74
2022/08/03 09:59:26;;;;;;;12.00;3.65;;;40.70;40.40;;;;;;5053051;28;20044;-75
2022/08/03 10:02:30;;;;;;;9.13;3.00;;;40.70;40.80;;;;;;5052387;28;20108;-74
2022/08/03 10:05:34;;;;;;;14.18;3.40;;;41.00;40.80;;;;;;5052784;28;20036;-74
2022/08/03 10:08:45;;;;;;;12.43;3.83;;;41.10;40.80;;;;;;5052434;28;20500;-74
2022/08/03 10:11:49;;;;;;;15.20;3.97;;;40.80;41.70;;;;;;5052270;28;20044;-73
2022/08/03 10:14:54;;;;;;;22.63;4.45;;;40.90;42.00;;;;;;5052612;28;20519;-74
2022/08/03 10:18:03;;;;;;;16.90;4.57;;;41.00;41.80;;;;;;5052208;28;20495;-73
2022/08/03 10:21:11;;;;;;;13.25;3.20;;;40.90;41.60;;;;;;5051913;28;20044;-73
2022/08/03 10:24:19;;;;;;;14.50;3.78;;;40.80;42.40;;;;;;5051775;28;20452;-75
2022/08/03 10:27:25;;;;;;;15.40;5.68;;;41.00;41.80;;;;;;5052646;28;20059;-76
2022/08/03 10:30:31;;;;;;;7.97;3.30;;;41.00;41.40;;;;;;5052405;28;20040;-73
2022/08/03 10:33:43;;;;;;;14.25;3.90;;;40.80;42.30;;;;;;5052699;28;20416;-76
2022/08/03 10:36:50;;;;;;;12.30;3.58;;;40.20;42.90;;;;;;5051684;28;20440;-75
2022/08/03 10:39:57;;;;;;;19.48;4.93;;;39.90;43.30;;;;;;5051000;28;20496;-76
2022/08/03 10:43:15;;;;;;;9.73;3.35;;;39.50;42.90;;;;;;5052889;28;20357;-75
2022/08/03 10:46:20;;;;;;;8.30;3.28;;;39.20;43.40;;;;;;5051653;28;20060;-74
2022/08/03 10:49:24;;;;;;;7.35;2.97;;;39.00;43.30;;;;;;5052709;28;20047;-75
2022/08/03 10:52:28;;;;;;;16.67;4.60;;;38.90;44.20;;;;;;5051871;28;20040;-75
2022/08/03 10:59:04;;;;;;;10.25;2.72;;;38.70;43.80;;;;;;5052622;28;20056;-74
2022/08/03 11:02:08;;;;;;;10.00;3.22;;;38.60;43.90;;;;;;5051646;28;20052;-75
2022/08/03 11:05:46;;;;;;;18.35;4.00;;;38.50;44.40;;;;;;5051457;28;20047;-76
2022/08/03 11:09:10;;;;;;;7.13;2.50;;;38.50;44.50;;;;;;5051614;28;20504;-75
2022/08/03 11:12:28;;;;;;;8.25;2.58;;;38.50;44.40;;;;;;5052499;28;20116;-75
2022/08/03 11:15:34;;;;;;;10.82;2.97;;;38.40;44.50;;;;;;5053396;28;20056;-72
2022/08/03 11:18:59;;;;;;;11.45;3.17;;;38.30;44.30;;;;;;5052431;28;20032;-75
2022/08/03 11:22:03;;;;;;;6.88;2.53;;;38.30;44.50;;;;;;5052566;28;20052;-74
2022/08/03 11:25:07;;;;;;;7.78;3.15;;;38.20;45.80;;;;;;5052943;28;20155;-73
2022/08/03 11:28:27;;;;;;;4.97;2.40;;;38.20;44.50;;;;;;5052143;28;20052;-74
2022/08/03 11:31:31;;;;;;;;;;;38.10;44.50;;;;;;5053202;28;20048;-75
2022/08/03 11:35:09;;;;;;;4.82;2.47;;;38.00;45.50;;;;;;5051843;28;20387;-75
2022/08/03 11:38:13;;;;;;;11.43;2.65;;;37.90;45.40;;;;;;5051794;28;20048;-74
2022/08/03 11:41:33;;;;;;;5.93;2.40;;;37.90;46.10;;;;;;5051824;28;20048;-75
2022/08/03 11:44:40;;;;;;;;;;;37.80;45.30;;;;;;5055148;28;20056;-74
2022/08/03 11:47:45;;;;;;;13.23;2.55;;;37.70;45.60;;;;;;5055573;28;20280;-75
2022/08/03 11:50:49;;;;;;;7.18;2.60;;;37.70;45.50;;;;;;5055055;28;20039;-74
2022/08/03 11:53:55;;;;;;;6.72;2.28;;;37.70;46.40;;;;;;5055499;28;20052;-74
2022/08/03 11:56:59;;;;;;;7.82;2.60;;;37.60;45.60;;;;;;5054381;28;20079;-73
2022/08/03 12:00:29;;;;;;;6.05;2.38;;;37.60;45.20;;;;;;5054597;28;20259;-75
2022/08/03 12:03:35;;;;;;;12.02;2.58;;;38.50;44.70;;;;;;5054184;28;20060;-73
2022/08/03 12:06:54;;;;;;;7.78;2.22;;;39.40;44.40;;;;;;5055839;28;20108;-76
2022/08/03 12:10:13;;;;;;;9.65;2.55;;;39.70;43.40;;;;;;5055219;28;20052;-73
2022/08/03 12:13:18;;;;;;;9.90;2.85;;;39.70;43.50;;;;;;5055327;28;20044;-73
2022/08/03 12:16:24;;;;;;;7.47;2.90;;;39.90;42.90;;;;;;5054349;28;20060;-74
2022/08/03 12:19:43;;;;;;;19.13;2.42;;;39.90;42.50;;;;;;5055641;28;20063;-74
2022/08/03 12:22:47;;;;;;;19.60;3.10;;;39.80;43.00;;;;;;5054636;28;20095;-74
2022/08/03 12:26:04;;;;;;;24.13;2.75;;;39.60;42.70;;;;;;5055154;28;20388;-73
2022/08/03 12:29:15;;;;;;;5.78;2.10;;;39.40;43.30;;;;;;5054498;28;20048;-76
2022/08/03 12:32:19;;;;;;;10.20;2.63;;;39.20;43.50;;;;;;5043837;28;20052;-73
2022/08/03 12:35:23;;;;;;;11.43;2.75;;;39.20;43.20;;;;;;5054411;28;20048;-72
2022/08/03 12:38:27;;;;;;;36.80;3.80;;;39.20;43.60;;;;;;5053857;28;20423;-70
2022/08/03 12:41:34;;;;;;;12.82;2.65;;;39.20;43.80;;;;;;5054620;28;20052;-72
2022/08/03 12:44:40;;;;;;;12.25;2.75;;;39.20;43.90;;;;;;5053994;28;20048;-72
2022/08/03 12:48:00;;;;;;;18.58;3.20;;;39.30;43.60;;;;;;5053885;28;20044;-71
2022/08/03 12:51:11;;;;;;;12.80;2.10;;;38.90;44.20;;;;;;5052512;28;20040;-71
2022/08/03 12:54:17;;;;;;;12.55;2.00;;;38.40;44.40;;;;;;5052230;28;20048;-70
2022/08/03 12:57:21;;;;;;;8.98;2.80;;;38.00;44.80;;;;;;5053073;28;20052;-70
2022/08/03 13:00:26;;;;;;;16.25;2.30;;;37.70;45.50;;;;;;5053402;28;20048;-71
2022/08/03 13:03:40;;;;;;;11.43;2.47;;;37.50;45.30;;;;;;5053088;28;20067;-72
2022/08/03 13:06:59;;;;;;;10.23;2.10;;;37.20;45.70;;;;;;5053218;28;20051;-72
2022/08/03 13:10:04;;;;;;;8.97;2.07;;;37.10;46.00;;;;;;5052756;28;20056;-71
2022/08/03 13:13:08;;;;;;;7.38;1.80;;;37.10;45.70;;;;;;5053720;28;20040;-71
2022/08/03 13:16:12;;;;;;;9.48;2.45;;;37.00;45.80;;;;;;5053440;28;20409;-70
2022/08/03 13:19:16;;;;;;;7.03;1.80;;;36.90;44.80;;;;;;5053897;28;20048;-71
2022/08/03 13:22:27;;;;;;;7.82;2.35;;;36.90;44.80;;;;;;5041133;28;20404;-70
2022/08/03 13:25:32;;;;;;;19.35;2.28;;;36.80;44.50;;;;;;5053831;28;20040;-71
2022/08/03 13:28:36;;;;;;;22.27;2.65;;;36.70;44.60;;;;;;5053324;28;20036;-71
2022/08/03 13:31:40;;;;;;;12.25;2.47;;;36.60;45.50;;;;;;5053021;28;20047;-71
2022/08/03 13:34:44;;;;;;;16.25;2.60;;;36.50;46.30;;;;;;5052340;28;20044;-71
2022/08/03 13:37:49;;;;;;;8.70;2.03;;;36.40;46.30;;;;;;5053214;28;20060;-71
2022/08/03 13:40:53;;;;;;;7.15;2.08;;;36.40;47.10;;;;;;5052762;28;20335;-72
2022/08/03 13:44:17;;;;;;;16.27;2.55;;;36.40;47.10;;;;;;5053133;28;20048;-71
2022/08/03 13:47:22;;;;;;;9.93;2.05;;;36.40;46.50;;;;;;5052973;28;20040;-72
2022/08/03 13:50:26;;;;;;;12.75;2.63;;;36.30;46.10;;;;;;5052787;28;20040;-71
2022/08/03 13:53:32;;;;;;;12.15;2.17;;;36.20;46.60;;;;;;5052947;28;20044;-72
2022/08/03 13:56:36;;;;;;;12.20;2.72;;;36.20;46.30;;;;;;5052611;28;20158;-71
2022/08/03 13:59:40;;;;;;;13.02;2.20;;;36.10;46.40;;;;;;5052764;28;20052;-70
2022/08/03 14:02:44;;;;;;;4.97;1.95;;;36.10;46.50;;;;;;5052255;28;20048;-71
2022/08/03 14:05:51;;;;;;;4.40;1.92;;;36.10;46.80;;;;;;5039988;28;20523;-71
2022/08/03 14:08:56;;;;;;;14.32;2.35;;;36.10;46.50;;;;;;5051356;28;20053;-70
2022/08/03 14:12:05;;;;;;;9.32;2.17;;;36.00;46.30;;;;;;5051665;28;20452;-72
2022/08/03 14:15:11;;;;;;;9.82;2.10;;;36.00;46.70;;;;;;5052239;28;20040;-72
2022/08/03 14:18:16;;;;;;;12.02;2.35;;;36.10;46.30;;;;;;5052141;28;20053;-71
2022/08/03 14:21:20;;;;;;;8.93;1.90;;;36.00;46.00;;;;;;5052253;28;20389;-71
2022/08/03 14:24:24;;;;;;;8.40;2.20;;;36.00;46.40;;;;;;5051534;28;20055;-71
2022/08/03 14:27:28;;;;;;;15.52;2.55;;;36.00;46.90;;;;;;5052113;28;20040;-72
2022/08/03 14:30:33;;;;;;;10.65;3.28;;;36.00;46.60;;;;;;5051961;28;20048;-73
2022/08/03 14:33:37;;;;;;;6.10;2.25;;;36.00;46.10;;;;;;5051665;28;20047;-73
2022/08/03 14:36:41;;;;;;;6.13;2.17;;;35.90;47.10;;;;;;5051652;28;20044;-73
2022/08/03 14:39:46;;;;;;;10.00;2.58;;;35.90;46.40;;;;;;5051001;28;20428;-73
2022/08/03 14:42:51;;;;;;;6.65;2.42;;;35.90;46.50;;;;;;5051856;28;20040;-71
2022/08/03 14:45:56;;;;;;;8.57;2.03;;;35.90;46.60;;;;;;5052033;28;20439;-72
2022/08/03 14:49:00;;;;;;;4.18;2.03;;;35.90;47.00;;;;;;5050720;28;20040;-72
2022/08/03 14:52:04;;;;;;;6.32;2.03;;;35.80;47.00;;;;;;5051451;28;20043;-71
2022/08/03 14:55:08;;;;;;;6.68;1.98;;;35.80;47.50;;;;;;5050860;28;20503;-70
2022/08/03 14:58:13;;;;;;;6.40;1.90;;;35.80;47.50;;;;;;5050646;28;20052;-72
2022/08/03 15:01:17;;;;;;;5.00;1.90;;;35.70;47.40;;;;;;5051256;28;20036;-73
2022/08/03 15:04:21;;;;;;;3.28;1.60;;;35.70;47.70;;;;;;5051536;28;20431;-71
2022/08/03 15:07:25;;;;;;;3.92;1.77;;;35.60;47.70;;;;;;5051972;28;20048;-73
2022/08/03 15:10:30;;;;;;;5.25;1.80;;;35.60;48.50;;;;;;5050002;28;20044;-73
2022/08/03 15:13:33;;;;;;;6.95;2.28;;;35.60;48.60;;;;;;5051591;28;20039;-71
2022/08/03 15:16:38;;;;;;;9.38;2.45;;;35.60;48.90;;;;;;5050368;28;20060;-66
2022/08/03 15:19:42;;;;;;;6.57;2.10;;;36.20;48.80;;;;;;5050727;28;20039;-67
2022/08/03 15:22:46;;;;;;;4.47;2.25;;;37.50;47.50;;;;;;5051118;28;20048;-67
2022/08/03 15:25:51;;;;;;;9.25;2.05;;;38.60;46.60;;;;;;5051188;28;20043;-68
2022/08/03 15:28:55;;;;;;;19.65;2.70;;;39.00;46.20;;;;;;5051031;28;20523;-67
2022/08/03 15:31:59;;;;;;;4.72;1.88;;;39.30;45.60;;;;;;5050588;28;20068;-67
2022/08/03 15:35:03;;;;;;;6.28;2.47;;;39.30;45.60;;;;;;5051200;28;20040;-69
2022/08/03 15:38:07;;;;;;;14.60;2.92;;;39.00;45.70;;;;;;5051163;28;20060;-68
2022/08/03 15:41:13;;;;;;;8.55;3.55;;;39.20;46.00;;;;;;5050487;28;20634;-68
2022/08/03 15:44:18;;;;;;;14.90;3.92;;;39.50;45.50;;;;;;5050861;28;20048;-66
2022/08/03 15:47:23;;;;;;;12.13;3.40;;;39.70;45.20;;;;;;5050436;28;20044;-67
2022/08/03 15:50:27;;;;;;;15.45;3.25;;;39.80;44.20;;;;;;5050945;28;20052;-68
2022/08/03 15:53:32;;;;;;;6.93;2.65;;;40.00;42.60;;;;;;5049880;28;20044;-67
2022/08/03 15:56:36;;;;;;;4.63;2.17;;;40.00;42.20;;;;;;5050615;28;20060;-68
2022/08/03 15:59:40;;;;;;;7.28;2.40;;;40.00;41.80;;;;;;5050410;28;20049;-69
2022/08/03 16:02:45;;;;;;;4.25;2.30;;;40.00;42.10;;;;;;5051011;28;20040;-69
2022/08/03 16:05:48;;;;;;;9.95;2.88;;;40.00;42.20;;;;;;5050466;28;20503;-67
2022/08/03 16:08:52;;;;;;;9.57;2.63;;;39.90;42.40;;;;;;5049830;28;20055;-68
2022/08/03 16:11:58;;;;;;;3.05;1.92;;;39.90;42.90;;;;;;5050359;28;20059;-68
2022/08/03 16:15:03;;;;;;;7.88;2.70;;;39.90;43.10;;;;;;5038521;28;20055;-69